createdAt,value
2023-05-17T00:01:46.026Z,101855.28
2023-05-17T00:04:13.130Z,101859.75
2023-05-17T00:06:39.586Z,101856.31
2023-05-17T00:09:06.146Z,101854.00
2023-05-17T00:11:32.647Z,101850.53
2023-05-17T00:13:59.004Z,101858.69
2023-05-17T00:16:25.398Z,101850.81
2023-05-17T00:18:51.999Z,101856.94
2023-05-17T00:21:18.506Z,101856.13
2023-05-17T00:23:44.873Z,101858.44
2023-05-17T00:26:11.416Z,101857.88
2023-05-17T00:28:37.803Z,101857.06
2023-05-17T00:31:04.236Z,101868.38
2023-05-17T00:33:30.668Z,101866.28
2023-05-17T00:35:57.222Z,101866.31
2023-05-17T00:38:23.752Z,101868.22
2023-05-17T00:40:50.757Z,101868.44
2023-05-17T00:43:17.112Z,101864.09
2023-05-17T00:45:43.645Z,101866.81
2023-05-17T00:48:10.340Z,101870.19
2023-05-17T00:50:37.257Z,101870.44
2023-05-17T00:53:03.670Z,101866.03
2023-05-17T00:55:30.745Z,101868.56
2023-05-17T00:57:57.476Z,101870.25
2023-05-17T01:00:24.295Z,101871.94
2023-05-17T01:02:50.898Z,101866.13
2023-05-17T01:05:17.728Z,101869.47
2023-05-17T01:07:44.180Z,101877.41
2023-05-17T01:10:10.836Z,101877.00
2023-05-17T01:12:58.459Z,101877.41
2023-05-17T01:15:30.231Z,101871.97
2023-05-17T01:18:20.140Z,101878.03
2023-05-17T01:20:48.379Z,101879.53
2023-05-17T01:23:31.358Z,101885.75
2023-05-17T01:26:08.810Z,101881.19
2023-05-17T01:28:38.334Z,101881.41
2023-05-17T01:31:05.811Z,101880.16
2023-05-17T01:33:32.831Z,101883.25
2023-05-17T01:35:59.268Z,101894.53
2023-05-17T01:38:25.692Z,101893.69
2023-05-17T01:41:02.326Z,101897.03
2023-05-17T01:43:41.598Z,101904.31
2023-05-17T01:46:28.687Z,101904.09
2023-05-17T01:49:06.718Z,101908.28
2023-05-17T01:51:37.139Z,101901.41
2023-05-17T01:54:11.349Z,101907.88
2023-05-17T01:56:42.954Z,101897.44
2023-05-17T01:59:11.642Z,101904.13
2023-05-17T02:01:39.508Z,101906.63
2023-05-17T02:04:06.056Z,101919.56
2023-05-17T02:06:32.780Z,101914.13
2023-05-17T02:09:02.545Z,101917.03
2023-05-17T02:11:29.037Z,101913.28
2023-05-17T02:13:55.572Z,101914.94
2023-05-17T02:16:22.159Z,101906.00
2023-05-17T02:18:48.688Z,101918.72
2023-05-17T02:21:15.205Z,101916.63
2023-05-17T02:23:41.592Z,101919.94
2023-05-17T02:26:08.032Z,101914.97
2023-05-17T02:28:34.819Z,101912.84
2023-05-17T02:31:01.261Z,101916.00
2023-05-17T02:33:28.116Z,101912.44
2023-05-17T02:35:54.540Z,101920.78
2023-05-17T02:38:20.990Z,101919.97
2023-05-17T02:40:47.398Z,101923.69
2023-05-17T02:43:13.851Z,101927.44
2023-05-17T02:45:40.262Z,101924.31
2023-05-17T02:48:06.942Z,101930.75
2023-05-17T02:50:33.589Z,101930.13
2023-05-17T02:52:59.947Z,101924.28
2023-05-17T02:55:26.603Z,101924.50
2023-05-17T02:57:53.507Z,101936.78
2023-05-17T03:00:20.069Z,101928.03
2023-05-17T03:02:48.563Z,101932.59
2023-05-17T03:05:15.143Z,101926.53
2023-05-17T03:07:42.482Z,101926.13
2023-05-17T03:10:09.093Z,101929.22
2023-05-17T03:12:35.544Z,101921.72
2023-05-17T03:15:02.106Z,101929.03
2023-05-17T03:17:28.632Z,101922.78
2023-05-17T03:19:55.281Z,101935.25
2023-05-17T03:22:22.294Z,101933.38
2023-05-17T03:24:48.739Z,101934.00
2023-05-17T03:27:15.319Z,101941.03
2023-05-17T03:29:41.924Z,101930.56
2023-05-17T03:32:08.726Z,101931.38
2023-05-17T03:34:35.103Z,101940.53
2023-05-17T03:37:01.676Z,101946.34
2023-05-17T03:39:28.100Z,101953.59
2023-05-17T03:41:54.966Z,101951.75
2023-05-17T03:44:21.554Z,101959.72
2023-05-17T03:46:47.896Z,101961.53
2023-05-17T03:49:14.300Z,101962.59
2023-05-17T03:51:40.833Z,101968.19
2023-05-17T03:54:07.239Z,101974.81
2023-05-17T03:56:33.665Z,101979.84
2023-05-17T03:59:00.108Z,101977.38
2023-05-17T04:01:26.703Z,101976.19
2023-05-17T04:03:53.284Z,101982.03
2023-05-17T04:06:19.875Z,101973.00
2023-05-17T04:08:46.293Z,101966.38
2023-05-17T04:11:13.918Z,101971.78
2023-05-17T04:13:41.282Z,101978.06
2023-05-17T04:16:08.987Z,101980.13
2023-05-17T04:18:36.971Z,101979.31
2023-05-17T04:21:04.117Z,101983.53
2023-05-17T04:23:31.908Z,101979.84
2023-05-17T04:25:58.574Z,101983.16
2023-05-17T04:28:26.115Z,101987.16
2023-05-17T04:30:53.022Z,101996.34
2023-05-17T04:33:20.075Z,101999.91
2023-05-17T04:35:46.806Z,102002.41
2023-05-17T04:38:13.476Z,101990.16
2023-05-17T04:40:40.848Z,102000.78
2023-05-17T04:43:07.252Z,101997.25
2023-05-17T04:45:33.877Z,101999.78
2023-05-17T04:48:00.748Z,101993.72
2023-05-17T04:50:27.530Z,101994.97
2023-05-17T04:52:53.933Z,101995.41
2023-05-17T04:55:20.353Z,101992.91
2023-05-17T04:57:46.793Z,101997.53
2023-05-17T05:00:15.535Z,102000.03
2023-05-17T05:02:42.401Z,102006.06
2023-05-17T05:05:12.306Z,102005.66
2023-05-17T05:07:39.959Z,102012.13
2023-05-17T05:10:07.164Z,102017.34
2023-05-17T05:12:33.625Z,102015.47
2023-05-17T05:15:01.183Z,102022.97
2023-05-17T05:17:31.057Z,102028.41
2023-05-17T05:19:57.756Z,102031.75
2023-05-17T05:22:24.348Z,102027.78
2023-05-17T05:24:51.109Z,102018.78
2023-05-17T05:27:17.503Z,102028.41
2023-05-17T05:29:44.203Z,102017.13
2023-05-17T05:32:10.708Z,102033.41
2023-05-17T05:34:38.901Z,102037.97
2023-05-17T05:37:05.420Z,102045.47
2023-05-17T05:39:33.097Z,102036.72
2023-05-17T05:41:59.643Z,102049.25
2023-05-17T05:44:26.107Z,102046.09
2023-05-17T05:46:52.582Z,102046.94
2023-05-17T05:49:19.449Z,102052.16
2023-05-17T05:51:45.889Z,102056.72
2023-05-17T05:54:13.368Z,102055.06
2023-05-17T05:56:40.013Z,102055.47
2023-05-17T05:59:06.474Z,102063.00
2023-05-17T06:01:34.026Z,102057.78
2023-05-17T06:04:00.598Z,102066.31
2023-05-17T06:06:27.201Z,102070.69
2023-05-17T06:08:54.103Z,102073.56
2023-05-17T06:11:21.016Z,102065.81
2023-05-17T06:13:50.328Z,102067.06
2023-05-17T06:16:16.682Z,102070.75
2023-05-17T06:18:43.706Z,102063.44
2023-05-17T06:21:10.207Z,102075.53
2023-05-17T06:23:36.582Z,102079.91
2023-05-17T06:26:03.047Z,102073.63
2023-05-17T06:28:29.467Z,102077.47
2023-05-17T06:30:55.909Z,102082.03
2023-05-17T06:33:22.532Z,102087.06
2023-05-17T06:35:57.019Z,102083.03
2023-05-17T06:38:24.790Z,102087.75
2023-05-17T06:40:55.519Z,102090.84
2023-05-17T06:43:22.321Z,102084.53
2023-05-17T06:45:48.801Z,102079.28
2023-05-17T06:48:15.726Z,102079.84
2023-05-17T06:50:42.677Z,102081.44
2023-05-17T06:53:09.158Z,102090.75
2023-05-17T06:55:35.660Z,102093.81
2023-05-17T06:58:02.186Z,102092.38
2023-05-17T07:00:29.179Z,102098.03
2023-05-17T07:02:56.112Z,102085.53
2023-05-17T07:05:24.144Z,102083.78
2023-05-17T07:07:50.635Z,102092.78
2023-05-17T07:10:18.578Z,102093.19
2023-05-17T07:12:45.153Z,102096.91
2023-05-17T07:15:11.679Z,102101.94
2023-05-17T07:17:38.206Z,102106.06
2023-05-17T07:20:06.221Z,102097.59
2023-05-17T07:22:33.058Z,102094.25
2023-05-17T07:24:59.527Z,102103.38
2023-05-17T07:27:25.929Z,102103.09
2023-05-17T07:29:52.420Z,102103.91
2023-05-17T07:32:18.814Z,102111.22
2023-05-17T07:34:46.050Z,102114.78
2023-05-17T07:37:18.607Z,102109.22
2023-05-17T07:39:45.120Z,102105.22
2023-05-17T07:42:14.355Z,102107.06
2023-05-17T07:44:40.752Z,102105.97
2023-05-17T07:47:07.247Z,102109.31
2023-05-17T07:49:33.800Z,102118.09
2023-05-17T07:52:00.303Z,102121.84
2023-05-17T07:54:29.882Z,102127.84
2023-05-17T07:56:56.663Z,102132.09
2023-05-17T07:59:23.897Z,102128.38
2023-05-17T08:01:51.041Z,102129.91
2023-05-17T08:04:19.129Z,102136.47
2023-05-17T08:06:46.987Z,102127.19
2023-05-17T08:09:13.419Z,102135.06
2023-05-17T08:11:45.802Z,102138.03
2023-05-17T08:14:16.679Z,102135.97
2023-05-17T08:16:45.335Z,102141.88
2023-05-17T08:19:13.281Z,102142.31
2023-05-17T08:21:43.259Z,102153.81
2023-05-17T08:24:09.983Z,102144.88
2023-05-17T08:26:36.465Z,102144.81
2023-05-17T08:29:04.668Z,102144.34
2023-05-17T08:31:32.206Z,102141.53
2023-05-17T08:33:58.677Z,102145.22
2023-05-17T08:36:25.173Z,102145.22
2023-05-17T08:38:52.494Z,102152.44
2023-05-17T08:41:19.450Z,102146.84
2023-05-17T08:43:47.169Z,102148.00
2023-05-17T08:46:15.835Z,102140.59
2023-05-17T08:48:44.536Z,102144.94
2023-05-17T08:51:12.040Z,102140.16
2023-05-17T08:53:38.713Z,102145.03
2023-05-17T08:56:06.918Z,102140.66
2023-05-17T08:58:48.170Z,102133.38
2023-05-17T09:01:24.391Z,102138.00
2023-05-17T09:03:52.346Z,102140.97
2023-05-17T09:06:22.962Z,102147.63
2023-05-17T09:08:54.934Z,102147.72
2023-05-17T09:11:27.778Z,102145.00
2023-05-17T09:13:58.720Z,102147.84
2023-05-17T09:16:26.440Z,102151.19
2023-05-17T09:18:57.511Z,102144.16
2023-05-17T09:21:25.786Z,102138.34
2023-05-17T09:24:05.466Z,102143.53
2023-05-17T09:26:44.846Z,102134.59
2023-05-17T09:29:16.025Z,102138.28
2023-05-17T09:31:43.819Z,102139.53
2023-05-17T09:34:10.802Z,102135.50
2023-05-17T09:36:38.672Z,102142.16
2023-05-17T09:39:07.806Z,102141.81
2023-05-17T09:41:41.367Z,102140.25
2023-05-17T09:44:11.801Z,102142.72
2023-05-17T09:46:41.901Z,102139.09
2023-05-17T09:49:09.302Z,102133.69
2023-05-17T09:51:38.732Z,102136.72
2023-05-17T09:54:07.301Z,102129.66
2023-05-17T09:56:34.967Z,102131.88
2023-05-17T09:59:02.205Z,102132.47
2023-05-17T10:01:30.946Z,102139.63
2023-05-17T10:04:04.420Z,102131.13
2023-05-17T10:06:44.730Z,102124.78
2023-05-17T10:09:14.888Z,102123.91
2023-05-17T10:11:47.024Z,102126.91
2023-05-17T10:14:22.770Z,102122.06
2023-05-17T10:16:51.035Z,102113.94
2023-05-17T10:19:20.150Z,102107.72
2023-05-17T10:21:50.050Z,102103.63
2023-05-17T10:24:17.461Z,102123.56
2023-05-17T10:26:44.199Z,102124.88
2023-05-17T10:29:10.862Z,102109.03
2023-05-17T10:31:37.418Z,102114.84
2023-05-17T10:34:06.318Z,102112.91
2023-05-17T10:36:33.880Z,102114.00
2023-05-17T10:39:01.856Z,102104.75
2023-05-17T10:41:34.139Z,102100.59
2023-05-17T10:44:07.982Z,102098.00
2023-05-17T10:46:35.704Z,102108.38
2023-05-17T10:49:02.603Z,102102.63
2023-05-17T10:51:34.819Z,102103.16
2023-05-17T10:54:04.263Z,102115.47
2023-05-17T10:56:31.431Z,102108.50
2023-05-17T10:59:23.934Z,102105.50
2023-05-17T11:01:54.481Z,102111.31
2023-05-17T11:04:39.354Z,102103.31
2023-05-17T11:07:27.807Z,102089.78
2023-05-17T11:10:00.505Z,102099.59
2023-05-17T11:12:44.080Z,102090.19
2023-05-17T11:15:12.535Z,102100.00
2023-05-17T11:17:51.666Z,102089.63
2023-05-17T11:20:28.227Z,102087.38
2023-05-17T11:23:15.945Z,102088.53
2023-05-17T11:25:42.686Z,102079.00
2023-05-17T11:28:20.155Z,102083.53
2023-05-17T11:30:53.589Z,102086.22
2023-05-17T11:33:32.772Z,102091.44
2023-05-17T11:36:05.340Z,102090.47
2023-05-17T11:38:32.781Z,102086.91
2023-05-17T11:41:26.673Z,102089.88
2023-05-17T11:43:54.331Z,102086.91
2023-05-17T11:46:22.672Z,102083.25
2023-05-17T11:48:53.919Z,102085.53
2023-05-17T11:51:23.819Z,102087.09
2023-05-17T11:53:54.454Z,102087.13
2023-05-17T11:56:29.039Z,102070.84
2023-05-17T11:59:04.121Z,102069.84
2023-05-17T12:01:43.340Z,102073.78
2023-05-17T12:04:09.892Z,102076.41
2023-05-17T12:06:36.659Z,102083.19
2023-05-17T12:09:03.494Z,102089.19
2023-05-17T12:11:30.452Z,102078.78
2023-05-17T12:13:57.038Z,102087.53
2023-05-17T12:16:23.929Z,102085.06
2023-05-17T12:18:52.078Z,102077.56
2023-05-17T12:21:21.788Z,102072.88
2023-05-17T12:23:51.657Z,102077.81
2023-05-17T12:26:21.395Z,102082.34
2023-05-17T12:28:59.633Z,102074.25
2023-05-17T12:31:34.965Z,102078.72
2023-05-17T12:34:04.929Z,102074.53
2023-05-17T12:36:33.655Z,102069.13
2023-05-17T12:39:01.554Z,102063.25
2023-05-17T12:41:29.603Z,102073.91
2023-05-17T12:44:06.192Z,102071.59
2023-05-17T12:46:40.065Z,102070.41
2023-05-17T12:49:08.419Z,102076.56
2023-05-17T12:51:45.614Z,102072.06
2023-05-17T12:54:29.559Z,102067.44
2023-05-17T12:56:56.314Z,102057.31
2023-05-17T12:59:25.498Z,102059.25
2023-05-17T13:01:55.689Z,102061.13
2023-05-17T13:04:31.638Z,102063.38
2023-05-17T13:07:00.322Z,102067.09
2023-05-17T13:09:30.806Z,102064.22
2023-05-17T13:12:05.020Z,102070.22
2023-05-17T13:14:35.237Z,102066.81
2023-05-17T13:17:02.961Z,102061.94
2023-05-17T13:19:29.628Z,102060.78
2023-05-17T13:21:56.235Z,102062.81
2023-05-17T13:24:22.718Z,102066.25
2023-05-17T13:26:49.253Z,102063.50
2023-05-17T13:29:16.363Z,102055.53
2023-05-17T13:31:43.912Z,102052.47
2023-05-17T13:34:10.515Z,102059.03
2023-05-17T13:36:37.007Z,102063.91
2023-05-17T13:39:04.556Z,102053.03
2023-05-17T13:41:31.136Z,102058.53
2023-05-17T13:43:57.549Z,102058.97
2023-05-17T13:46:23.934Z,102057.38
2023-05-17T13:48:50.509Z,102050.25
2023-05-17T13:51:16.973Z,102048.06
2023-05-17T13:53:44.153Z,102044.53
2023-05-17T13:56:10.846Z,102045.56
2023-05-17T13:58:37.298Z,102053.25
2023-05-17T14:01:04.465Z,102052.00
2023-05-17T14:03:31.104Z,102067.03
2023-05-17T14:05:57.770Z,102048.00
2023-05-17T14:08:24.238Z,102053.38
2023-05-17T14:10:50.878Z,102046.72
2023-05-17T14:13:17.313Z,102052.09
2023-05-17T14:15:43.674Z,102046.56
2023-05-17T14:18:10.502Z,102045.72
2023-05-17T14:20:37.054Z,102035.22
2023-05-17T14:23:03.503Z,102043.88
2023-05-17T14:25:30.014Z,102043.38
2023-05-17T14:27:56.436Z,102040.56
2023-05-17T14:30:22.920Z,102051.63
2023-05-17T14:32:49.695Z,102036.94
2023-05-17T14:35:17.301Z,102033.47
2023-05-17T14:37:43.915Z,102034.31
2023-05-17T14:40:12.077Z,102029.69
2023-05-17T14:42:39.789Z,102037.84
2023-05-17T14:45:06.886Z,102032.41
2023-05-17T14:47:36.551Z,102036.16
2023-05-17T14:50:03.907Z,102032.09
2023-05-17T14:52:30.552Z,102034.81
2023-05-17T14:54:56.960Z,102024.66
2023-05-17T14:57:23.456Z,102018.69
2023-05-17T14:59:49.968Z,102024.50
2023-05-17T15:02:16.347Z,102022.22
2023-05-17T15:04:43.126Z,102022.88
2023-05-17T15:07:09.898Z,102030.06
2023-05-17T15:09:41.374Z,102023.44
2023-05-17T15:12:11.252Z,102025.13
2023-05-17T15:14:40.349Z,102035.53
2023-05-17T15:17:06.965Z,102034.28
2023-05-17T15:19:33.627Z,102020.63
2023-05-17T15:22:01.533Z,102015.75
2023-05-17T15:24:28.309Z,102023.84
2023-05-17T15:26:54.882Z,102017.06
2023-05-17T15:29:21.366Z,102016.88
2023-05-17T15:31:47.726Z,102014.72
2023-05-17T15:34:14.155Z,102003.50
2023-05-17T15:36:40.895Z,102010.69
2023-05-17T15:39:07.546Z,102018.84
2023-05-17T15:41:33.961Z,102014.16
2023-05-17T15:44:00.520Z,102018.66
2023-05-17T15:46:27.172Z,102010.44
2023-05-17T15:48:53.657Z,102010.53
2023-05-17T15:51:20.107Z,102011.56
2023-05-17T15:53:48.077Z,102028.59
2023-05-17T15:56:17.230Z,102023.03
2023-05-17T15:58:43.696Z,102020.44
2023-05-17T16:01:10.117Z,102018.66
2023-05-17T16:03:36.817Z,102018.69
2023-05-17T16:06:04.736Z,102020.31
2023-05-17T16:08:31.332Z,102015.75
2023-05-17T16:10:57.777Z,102010.84
2023-05-17T16:13:24.685Z,102019.16
2023-05-17T16:15:51.213Z,102010.91
2023-05-17T16:18:17.795Z,102013.97
2023-05-17T16:20:44.468Z,102010.22
2023-05-17T16:23:10.836Z,102012.44
2023-05-17T16:25:37.593Z,102006.72
2023-05-17T16:28:04.106Z,102014.34
2023-05-17T16:30:30.565Z,102013.53
2023-05-17T16:32:57.124Z,102009.34
2023-05-17T16:35:23.794Z,102015.97
2023-05-17T16:37:50.144Z,102008.09
2023-05-17T16:40:16.856Z,102008.88
2023-05-17T16:42:44.574Z,102015.38
2023-05-17T16:45:11.333Z,102026.66
2023-05-17T16:47:37.818Z,102034.50
2023-05-17T16:50:05.620Z,102023.84
2023-05-17T16:52:32.074Z,102025.78
2023-05-17T16:55:03.189Z,102021.25
2023-05-17T16:57:31.688Z,102023.78
2023-05-17T17:00:00.713Z,102028.03
2023-05-17T17:02:28.487Z,102034.84
2023-05-17T17:04:55.146Z,102031.03
2023-05-17T17:07:21.589Z,102039.53
2023-05-17T17:09:48.025Z,102028.03
2023-05-17T17:12:24.206Z,102032.84
2023-05-17T17:14:51.597Z,102036.41
2023-05-17T17:17:18.117Z,102035.13
2023-05-17T17:19:44.540Z,102039.91
2023-05-17T17:22:11.783Z,102043.75
2023-05-17T17:24:38.560Z,102037.16
2023-05-17T17:27:05.630Z,102033.34
2023-05-17T17:29:35.390Z,102045.59
2023-05-17T17:32:02.626Z,102047.50
2023-05-17T17:34:29.118Z,102054.56
2023-05-17T17:36:55.688Z,102045.88
2023-05-17T17:39:22.268Z,102051.41
2023-05-17T17:41:48.638Z,102049.00
2023-05-17T17:44:15.040Z,102055.94
2023-05-17T17:46:41.621Z,102056.84
2023-05-17T17:49:08.057Z,102063.50
2023-05-17T17:51:34.525Z,102058.88
2023-05-17T17:54:05.630Z,102057.84
2023-05-17T17:56:32.807Z,102059.50
2023-05-17T17:58:59.814Z,102056.13
2023-05-17T18:01:27.123Z,102052.38
2023-05-17T18:03:53.639Z,102057.94
2023-05-17T18:06:20.053Z,102061.44
2023-05-17T18:08:46.624Z,102061.31
2023-05-17T18:11:13.325Z,102064.66
2023-05-17T18:13:39.739Z,102067.78
2023-05-17T18:16:06.722Z,102070.59
2023-05-17T18:18:33.560Z,102078.47
2023-05-17T18:20:59.974Z,102075.06
2023-05-17T18:23:26.536Z,102073.81
2023-05-17T18:25:52.998Z,102077.53
2023-05-17T18:28:26.869Z,102070.88
2023-05-17T18:31:04.473Z,102083.00
2023-05-17T18:33:31.522Z,102078.50
2023-05-17T18:35:57.977Z,102081.16
2023-05-17T18:38:24.434Z,102080.59
2023-05-17T18:40:51.173Z,102079.66
2023-05-17T18:43:17.627Z,102081.22
2023-05-17T18:45:44.057Z,102077.41
2023-05-17T18:48:10.589Z,102085.63
2023-05-17T18:50:37.034Z,102078.38
2023-05-17T18:53:03.488Z,102080.75
2023-05-17T18:55:29.929Z,102080.75
2023-05-17T18:57:56.396Z,102090.66
2023-05-17T19:00:22.973Z,102081.16
2023-05-17T19:02:49.389Z,102094.13
2023-05-17T19:05:15.906Z,102091.25
2023-05-17T19:07:42.375Z,102090.56
2023-05-17T19:10:09.480Z,102096.28
2023-05-17T19:12:36.051Z,102093.91
2023-05-17T19:15:03.867Z,102094.75
2023-05-17T19:17:30.421Z,102104.00
2023-05-17T19:19:56.913Z,102095.09
2023-05-17T19:22:23.483Z,102096.53
2023-05-17T19:24:50.835Z,102107.00
2023-05-17T19:27:19.538Z,102104.59
2023-05-17T19:29:47.157Z,102107.47
2023-05-17T19:32:13.817Z,102110.06
2023-05-17T19:34:40.327Z,102109.34
2023-05-17T19:37:06.761Z,102114.56
2023-05-17T19:39:33.189Z,102118.09
2023-05-17T19:41:59.607Z,102131.06
2023-05-17T19:44:26.270Z,102121.28
2023-05-17T19:46:52.731Z,102125.19
2023-05-17T19:49:19.279Z,102129.72
2023-05-17T19:51:46.742Z,102126.13
2023-05-17T19:54:13.189Z,102121.53
2023-05-17T19:56:39.647Z,102124.72
2023-05-17T19:59:06.239Z,102126.84
2023-05-17T20:01:32.666Z,102121.38
2023-05-17T20:03:59.288Z,102117.31
2023-05-17T20:06:25.971Z,102118.47
2023-05-17T20:08:52.390Z,102117.63
2023-05-17T20:11:18.895Z,102129.25
2023-05-17T20:13:45.451Z,102119.81
2023-05-17T20:16:14.881Z,102121.56
2023-05-17T20:18:43.349Z,102128.44
2023-05-17T20:21:15.816Z,102125.47
2023-05-17T20:23:42.548Z,102130.56
2023-05-17T20:26:16.176Z,102131.31
2023-05-17T20:28:46.227Z,102135.50
2023-05-17T20:31:13.639Z,102129.56
2023-05-17T20:33:40.093Z,102135.13
2023-05-17T20:36:06.604Z,102136.97
2023-05-17T20:38:32.971Z,102137.00
2023-05-17T20:41:00.743Z,102129.38
2023-05-17T20:43:28.818Z,102132.41
2023-05-17T20:45:55.626Z,102136.81
2023-05-17T20:48:22.089Z,102129.69
2023-05-17T20:50:49.026Z,102127.13
2023-05-17T20:53:15.555Z,102138.06
2023-05-17T20:55:44.378Z,102141.50
2023-05-17T20:58:11.253Z,102143.53
2023-05-17T21:00:38.310Z,102144.38
2023-05-17T21:03:05.006Z,102144.03
2023-05-17T21:05:35.964Z,102144.63
2023-05-17T21:08:02.856Z,102147.31
2023-05-17T21:10:29.799Z,102155.22
2023-05-17T21:12:56.646Z,102153.59
2023-05-17T21:15:23.253Z,102155.03
2023-05-17T21:17:50.174Z,102158.63
2023-05-17T21:20:17.076Z,102155.66
2023-05-17T21:22:44.349Z,102160.78
2023-05-17T21:25:11.003Z,102161.94
2023-05-17T21:27:37.449Z,102159.28
2023-05-17T21:30:04.150Z,102164.94
2023-05-17T21:32:30.691Z,102160.84
2023-05-17T21:34:59.517Z,102167.78
2023-05-17T21:37:26.033Z,102166.03
2023-05-17T21:39:52.522Z,102161.22
2023-05-17T21:42:18.954Z,102159.97
2023-05-17T21:44:45.294Z,102163.31
2023-05-17T21:47:11.705Z,102156.63
2023-05-17T21:49:38.100Z,102164.03
2023-05-17T21:52:04.814Z,102163.38
2023-05-17T21:54:31.269Z,102166.78
2023-05-17T21:56:57.660Z,102158.66
2023-05-17T21:59:24.981Z,102159.97
2023-05-17T22:01:53.866Z,102164.00
2023-05-17T22:04:20.528Z,102164.22
2023-05-17T22:06:46.924Z,102161.72
2023-05-17T22:09:13.817Z,102163.41
2023-05-17T22:11:40.537Z,102158.44
2023-05-17T22:14:07.590Z,102165.19
2023-05-17T22:16:35.931Z,102157.88
2023-05-17T22:19:03.711Z,102164.41
2023-05-17T22:21:32.046Z,102162.72
2023-05-17T22:23:59.647Z,102171.94
2023-05-17T22:26:27.592Z,102165.47
2023-05-17T22:28:54.423Z,102161.72
2023-05-17T22:31:20.939Z,102165.69
2023-05-17T22:33:47.472Z,102164.66
2023-05-17T22:36:14.247Z,102163.19
2023-05-17T22:38:42.694Z,102156.94
2023-05-17T22:41:10.508Z,102161.97
2023-05-17T22:43:37.376Z,102161.34
2023-05-17T22:46:04.225Z,102155.72
2023-05-17T22:48:32.034Z,102159.69
2023-05-17T22:51:00.970Z,102157.38
2023-05-17T22:53:29.319Z,102171.19
2023-05-17T22:55:55.952Z,102169.53
2023-05-17T22:58:26.142Z,102167.00
2023-05-17T23:00:53.042Z,102167.84
2023-05-17T23:03:20.287Z,102170.31
2023-05-17T23:05:46.789Z,102164.28
2023-05-17T23:08:15.698Z,102167.00
2023-05-17T23:10:45.153Z,102165.53
2023-05-17T23:13:12.446Z,102170.38
2023-05-17T23:15:40.620Z,102167.00
2023-05-17T23:18:07.147Z,102168.28
2023-05-17T23:20:34.856Z,102163.47
2023-05-17T23:23:01.717Z,102165.13
2023-05-17T23:25:29.051Z,102167.41
2023-05-17T23:27:57.968Z,102171.41
2023-05-17T23:30:24.796Z,102166.59
2023-05-17T23:32:52.193Z,102174.09
2023-05-17T23:35:18.868Z,102171.56
2023-05-17T23:37:45.355Z,102164.91
2023-05-17T23:40:12.712Z,102172.41
2023-05-17T23:42:40.466Z,102167.19
2023-05-17T23:45:07.590Z,102166.56
2023-05-17T23:47:34.033Z,102168.84
2023-05-17T23:50:01.096Z,102165.31
2023-05-17T23:52:29.964Z,102163.03
2023-05-17T23:54:59.182Z,102167.38
2023-05-17T23:57:25.648Z,102162.81
2023-05-17T23:59:52.219Z,102156.97
